Stonewall, North Carolina
Current Conditions -  °F | °C
As of 9:54 PM on Monday 26 Jan 2015 (Local Time) from KEWN Reporting Station
Broken Clouds Broken Clouds  
Wind Chill: 45°   Ceiling: 7500
Heat Index: 48°   Visibility: 10mi
Dew Point: 42°   Wind: 6mph
Humidity: 80%   Direction: 290°WNW
Pressure: 29.62"   Gusts: NA
Location:  35.14°N, 76.75°W
Report Text: KEWN 270254Z 29005KT 10SM BKN075 09/06 A2962 RMK AO2 SLP029 60000 T00890056 50005
Loading
Personal Weather Stations






























Interactive Weather Map New forecast layout! Learn more

10-Day Weather Forecast

Advertisements
Track Severe Weather on mobile